Time;durP1;ratioP1;P1;durP2;ratioP2;P2;SDS_P1;SDS_P2;PMS_P1;PMS_P2;Temp;Humidity;BMP_temperature;BMP_pressure;BME280_temperature;BME280_humidity;BME280_pressure;Samples;Min_cycle;Max_cycle;Signal;HPM_P1;HPM_P2
2023/03/20 00:01:29;;;;;;;17.90;7.13;;;;;;;9.16;64.40;101649.69;5061404;28;20162;-62
2023/03/20 00:03:57;;;;;;;16.73;7.18;;;;;;;8.82;65.23;101655.84;5061285;28;20492;-62
2023/03/20 00:06:25;;;;;;;14.73;6.55;;;;;;;8.78;65.40;101657.53;5064103;28;20049;-63
2023/03/20 00:08:53;;;;;;;17.40;7.75;;;;;;;8.89;65.38;101647.34;5068280;28;20063;-63
2023/03/20 00:11:29;;;;;;;16.83;7.28;;;;;;;8.91;65.36;101647.84;5067152;28;20391;-63
2023/03/20 00:14:00;;;;;;;15.93;6.93;;;;;;;8.88;65.61;101656.66;5076295;28;20051;-63
2023/03/20 00:16:42;;;;;;;15.35;6.75;;;;;;;8.72;65.51;101655.03;5061860;28;20655;-63
2023/03/20 00:19:24;;;;;;;16.13;6.60;;;;;;;8.88;65.63;101670.41;5061722;28;20052;-63
2023/03/20 00:21:53;;;;;;;18.45;6.82;;;;;;;8.60;65.93;101663.59;5068839;28;20147;-64
2023/03/20 00:24:21;;;;;;;19.48;6.55;;;;;;;8.79;65.35;101664.66;5076035;28;20044;-63
2023/03/20 00:26:50;;;;;;;16.15;6.18;;;;;;;8.95;65.22;101669.00;5074372;28;20111;-63
2023/03/20 00:29:35;;;;;;;14.00;5.95;;;;;;;8.84;64.89;101659.13;5075628;28;20079;-63
2023/03/20 00:32:02;;;;;;;13.00;6.30;;;;;;;8.90;65.08;101663.53;5038508;28;20059;-62
2023/03/20 00:34:31;;;;;;;18.15;6.10;;;;;;;8.92;64.76;101666.81;5070962;28;20056;-63
2023/03/20 00:36:58;;;;;;;11.65;5.63;;;;;;;9.06;64.64;101661.56;5073034;28;20052;-65
2023/03/20 00:39:28;;;;;;;18.52;6.40;;;;;;;9.00;64.33;101651.66;5074174;28;20048;-63
2023/03/20 00:42:04;;;;;;;16.15;6.47;;;;;;;8.85;64.61;101659.97;5073829;28;20406;-63
2023/03/20 00:44:35;;;;;;;14.30;6.47;;;;;;;8.70;64.93;101663.56;5073095;28;20067;-63
2023/03/20 00:47:05;;;;;;;14.70;6.00;;;;;;;8.50;65.71;101657.28;5067944;28;20049;-64
2023/03/20 00:49:37;;;;;;;18.20;7.32;;;;;;;8.48;65.83;101663.06;5075068;28;20056;-62
2023/03/20 00:52:08;;;;;;;17.55;6.32;;;;;;;8.56;65.70;101657.00;5072666;28;20053;-63
2023/03/20 00:54:35;;;;;;;;;;;;;;;8.57;65.92;101649.59;5074114;28;20162;-63
2023/03/20 00:57:13;;;;;;;14.38;6.20;;;;;;;8.73;65.16;101656.72;5067757;28;19929;-63
2023/03/20 00:59:57;;;;;;;16.55;7.15;;;;;;;8.19;66.21;101655.66;5073768;28;20067;-63
2023/03/20 01:02:27;;;;;;;18.48;7.43;;;;;;;8.17;67.15;101657.84;5073534;28;20063;-62
2023/03/20 01:04:56;;;;;;;18.73;6.95;;;;;;;8.22;67.60;101661.41;5057782;28;20056;-63
2023/03/20 01:07:26;;;;;;;13.35;6.80;;;;;;;8.14;67.66;101658.38;5076220;28;20077;-62
2023/03/20 01:09:54;;;;;;;18.48;6.30;;;;;;;8.57;66.76;101660.56;5077624;28;20048;-63
2023/03/20 01:12:22;;;;;;;18.75;6.60;;;;;;;8.72;66.45;101663.28;5076221;28;20514;-62
2023/03/20 01:14:55;;;;;;;16.27;6.32;;;;;;;8.83;66.21;101663.00;5078750;28;20759;-62
2023/03/20 01:17:24;;;;;;;17.58;7.22;;;;;;;8.68;66.21;101654.78;5076110;28;20071;-63
2023/03/20 01:19:51;;;;;;;17.05;6.93;;;;;;;8.31;66.97;101662.53;5076788;28;20052;-63
2023/03/20 01:22:18;;;;;;;16.48;6.45;;;;;;;8.59;66.31;101661.13;5075866;28;20055;-63
2023/03/20 01:24:47;;;;;;;14.93;6.13;;;;;;;8.61;65.92;101667.16;5078861;28;20055;-63
2023/03/20 01:27:17;;;;;;;18.75;7.07;;;;;;;8.51;66.56;101667.16;5077577;28;20059;-62
2023/03/20 01:29:45;;;;;;;13.38;6.07;;;;;;;8.58;66.46;101665.78;5066758;28;20075;-62
2023/03/20 01:32:16;;;;;;;14.65;5.60;;;;;;;8.64;66.40;101670.19;5074969;28;20408;-64
2023/03/20 01:34:47;;;;;;;16.85;6.47;;;;;;;8.19;66.99;101672.09;5077536;28;20049;-64
2023/03/20 01:37:22;;;;;;;14.63;6.00;;;;;;;8.13;67.49;101668.53;5077153;28;20504;-63
2023/03/20 01:39:50;;;;;;;17.77;6.68;;;;;;;8.27;67.36;101674.31;5076594;28;20475;-63
2023/03/20 01:42:18;;;;;;;15.52;6.88;;;;;;;8.23;67.14;101678.69;5074181;28;20143;-63
2023/03/20 01:44:45;;;;;;;16.90;7.72;;;;;;;8.22;67.27;101669.63;5077095;28;20059;-63
2023/03/20 01:47:19;;;;;;;19.20;7.72;;;;;;;8.31;67.30;101667.19;5075346;28;20610;-63
2023/03/20 01:50:21;;;;;;;18.52;6.75;;;;;;;8.28;67.20;101662.25;5076519;28;20063;-62
2023/03/20 01:53:06;;;;;;;14.35;5.78;;;;;;;8.41;66.95;101659.78;5058085;28;20052;-63
2023/03/20 01:55:39;;;;;;;12.30;6.15;;;;;;;8.47;66.71;101664.16;5059534;28;20052;-63
2023/03/20 01:58:14;;;;;;;13.93;6.18;;;;;;;8.59;66.24;101652.88;5043560;28;20055;-62
2023/03/20 02:00:41;;;;;;;17.35;6.25;;;;;;;8.34;66.28;101659.22;5044867;28;20044;-62
2023/03/20 02:03:13;;;;;;;13.82;5.60;;;;;;;8.07;67.21;101646.88;5074643;28;20049;-62
2023/03/20 02:06:15;;;;;;;13.32;5.47;;;;;;;8.36;66.68;101645.22;5067865;28;20063;-63
2023/03/20 02:08:57;;;;;;;13.25;5.50;;;;;;;8.54;66.48;101648.22;5058073;28;20507;-62
2023/03/20 02:11:28;;;;;;;13.13;5.63;;;;;;;8.73;65.77;101648.47;5046308;28;20049;-62
2023/03/20 02:13:57;;;;;;;16.80;6.32;;;;;;;8.61;65.82;101647.94;5051231;28;20071;-62
2023/03/20 02:16:28;;;;;;;16.13;6.03;;;;;;;8.65;65.70;101643.53;5067982;28;20052;-62
2023/03/20 02:19:10;;;;;;;13.63;5.35;;;;;;;8.65;65.41;101638.88;5075047;28;20052;-63
2023/03/20 02:22:20;;;;;;;12.85;6.00;;;;;;;8.44;66.03;101645.50;5073132;28;20484;-63
2023/03/20 02:25:14;;;;;;;17.10;6.10;;;;;;;8.54;65.90;101629.00;5066046;28;20396;-62
2023/03/20 02:28:19;;;;;;;18.20;6.13;;;;;;;8.50;66.03;101633.41;5067257;28;20538;-62
2023/03/20 02:31:13;;;;;;;12.93;5.22;;;;;;;8.46;66.33;101637.81;5070009;28;20083;-63
2023/03/20 02:34:00;;;;;;;12.48;5.45;;;;;;;8.43;66.56;101632.03;5049925;28;20053;-62
2023/03/20 02:36:52;;;;;;;16.77;6.72;;;;;;;8.39;66.68;101633.69;5065402;28;20044;-61
2023/03/20 02:39:25;;;;;;;16.20;5.80;;;;;;;8.18;67.39;101643.84;5076572;28;20048;-62
2023/03/20 02:41:59;;;;;;;15.55;6.50;;;;;;;8.16;67.55;101637.78;5064837;28;20060;-63
2023/03/20 02:44:38;;;;;;;12.05;6.03;;;;;;;7.93;67.83;101641.91;5057037;28;20059;-63
2023/03/20 02:47:13;;;;;;;14.18;6.00;;;;;;;7.71;68.59;101640.50;5073665;28;20052;-63
2023/03/20 02:49:51;;;;;;;15.82;6.40;;;;;;;7.71;69.37;101635.84;5075766;28;20048;-62
2023/03/20 02:52:50;;;;;;;14.40;6.03;;;;;;;7.72;68.94;101639.44;5074981;28;20044;-63
2023/03/20 02:55:32;;;;;;;14.90;5.85;;;;;;;7.68;69.62;101639.16;5049779;28;20056;-63
2023/03/20 02:58:08;;;;;;;17.02;6.75;;;;;;;7.62;69.84;101636.66;5065631;28;20048;-62
2023/03/20 03:00:47;;;;;;;20.15;6.65;;;;;;;7.78;69.73;101630.94;5074101;28;20055;-62
2023/03/20 03:03:33;;;;;;;12.93;6.00;;;;;;;7.75;69.66;101634.22;5076551;28;20055;-64
2023/03/20 03:06:07;;;;;;;19.00;7.05;;;;;;;7.70;69.72;101628.75;5073420;28;20138;-62
2023/03/20 03:08:40;;;;;;;15.18;6.63;;;;;;;7.89;69.54;101629.03;5060479;28;20057;-63
2023/03/20 03:11:08;;;;;;;17.02;6.25;;;;;;;7.89;69.52;101623.53;5063108;28;20036;-62
2023/03/20 03:13:40;;;;;;;13.80;5.90;;;;;;;7.99;69.35;101626.28;5058952;28;20059;-62
2023/03/20 03:16:13;;;;;;;14.00;6.35;;;;;;;7.70;70.50;101630.66;5070344;28;20053;-62
2023/03/20 03:18:41;;;;;;;13.70;5.90;;;;;;;7.59;71.00;101631.72;5056548;28;20049;-62
2023/03/20 03:21:12;;;;;;;16.27;6.40;;;;;;;7.64;71.09;101637.22;5039804;28;20044;-64
2023/03/20 03:23:47;;;;;;;14.18;6.35;;;;;;;7.79;70.51;101638.06;5076460;28;20044;-62
2023/03/20 03:26:27;;;;;;;14.85;6.35;;;;;;;7.81;70.56;101640.53;5072764;28;20049;-63
2023/03/20 03:29:01;;;;;;;14.60;6.30;;;;;;;8.02;70.13;101644.13;5073728;28;20048;-63
2023/03/20 03:31:29;;;;;;;13.73;5.93;;;;;;;8.06;69.73;101635.06;5052419;28;20049;-63
2023/03/20 03:33:58;;;;;;;16.75;6.82;;;;;;;8.10;69.42;101627.09;5056197;28;20060;-63
2023/03/20 03:36:38;;;;;;;17.05;6.60;;;;;;;8.02;69.66;101633.16;5064140;28;20056;-63
2023/03/20 03:39:18;;;;;;;14.48;5.38;;;;;;;7.80;69.59;101636.97;5058970;28;20049;-62
2023/03/20 03:41:55;;;;;;;11.50;4.45;;;;;;;7.91;69.76;101632.31;5066485;28;20400;-62
2023/03/20 03:44:45;;;;;;;18.42;5.78;;;;;;;8.02;68.74;101627.66;5057718;28;20053;-63
2023/03/20 03:47:32;;;;;;;12.80;5.35;;;;;;;7.74;69.40;101620.78;5071902;28;20116;-63
2023/03/20 03:50:04;;;;;;;13.02;4.72;;;;;;;7.62;69.51;101617.47;5054737;28;20064;-63
2023/03/20 03:52:32;;;;;;;13.88;4.60;;;;;;;7.74;69.46;101616.09;5072993;28;20053;-62
2023/03/20 03:55:02;;;;;;;;;;;;;;;7.85;69.01;101616.94;5072616;28;20396;-63
2023/03/20 03:57:43;;;;;;;15.63;4.40;;;;;;;7.94;68.68;101607.06;5069556;28;20368;-62
2023/03/20 04:00:16;;;;;;;10.85;4.13;;;;;;;7.99;68.24;101607.91;5022060;28;20052;-63
2023/03/20 04:02:46;;;;;;;11.50;3.90;;;;;;;7.95;68.64;101611.44;5040191;28;20049;-63
2023/03/20 04:05:15;;;;;;;11.95;4.15;;;;;;;8.00;68.24;101609.53;5074564;28;20052;-62
2023/03/20 04:07:46;;;;;;;15.55;4.00;;;;;;;8.10;67.83;101607.91;5056557;28;20119;-62
2023/03/20 04:10:14;;;;;;;12.43;3.70;;;;;;;7.75;67.82;101606.81;5075525;28;20060;-63
2023/03/20 04:12:43;;;;;;;13.82;3.65;;;;;;;7.90;67.88;101622.44;5074472;28;20049;-62
2023/03/20 04:15:11;;;;;;;15.45;3.80;;;;;;;7.84;68.17;101624.38;5075758;28;20492;-62
2023/03/20 04:17:39;;;;;;;10.15;3.35;;;;;;;7.65;68.30;101627.91;5072210;28;20072;-63
2023/03/20 04:20:08;;;;;;;13.45;3.88;;;;;;;7.71;68.08;101630.38;5056607;28;20045;-62
2023/03/20 04:22:36;;;;;;;22.33;4.63;;;;;;;7.77;67.57;101634.78;5072092;28;20056;-62
2023/03/20 04:25:15;;;;;;;11.85;4.20;;;;;;;7.74;67.70;101631.75;5073763;28;20056;-63
2023/03/20 04:27:42;;;;;;;10.25;3.10;;;;;;;7.71;67.68;101638.59;5073178;28;20049;-62
2023/03/20 04:30:17;;;;;;;14.48;3.75;;;;;;;7.84;67.71;101634.50;5073266;28;20052;-63
2023/03/20 04:33:03;;;;;;;8.93;3.15;;;;;;;8.01;67.32;101640.53;5075363;28;20495;-62
2023/03/20 04:35:43;;;;;;;13.90;3.58;;;;;;;8.28;67.02;101635.63;5071798;28;20112;-63
2023/03/20 04:38:14;;;;;;;12.50;4.18;;;;;;;8.14;67.06;101637.28;5074211;28;20515;-62
2023/03/20 04:40:43;;;;;;;14.27;3.45;;;;;;;8.20;66.73;101643.56;5074301;28;20505;-63
2023/03/20 04:43:11;;;;;;;11.18;3.60;;;;;;;8.37;66.35;101638.66;5077147;28;20036;-63
2023/03/20 04:45:40;;;;;;;16.50;3.95;;;;;;;8.49;65.32;101640.00;5075984;28;20060;-63
2023/03/20 04:48:08;;;;;;;11.43;3.63;;;;;;;8.40;65.28;101633.44;5077775;28;20053;-63
2023/03/20 04:50:36;;;;;;;13.27;3.22;;;;;;;8.34;65.77;101634.53;5076835;28;20044;-62
2023/03/20 04:53:04;;;;;;;11.63;3.80;;;;;;;8.24;65.80;101626.31;5077093;28;20059;-62
2023/03/20 04:55:33;;;;;;;13.38;3.47;;;;;;;8.48;66.08;101627.38;5075670;28;20061;-63
2023/03/20 04:58:00;;;;;;;18.35;4.25;;;;;;;8.40;65.50;101625.19;5077308;28;20071;-62
2023/03/20 05:00:29;;;;;;;14.07;3.65;;;;;;;8.43;65.71;101624.63;5059183;28;20766;-62
2023/03/20 05:02:56;;;;;;;8.45;3.30;;;;;;;8.53;65.78;101621.88;5075895;28;20052;-62
2023/03/20 05:05:24;;;;;;;19.33;3.63;;;;;;;8.64;65.43;101626.25;5078122;28;20433;-62
2023/03/20 05:07:52;;;;;;;10.73;3.45;;;;;;;8.54;65.42;101614.47;5057242;28;20435;-63
2023/03/20 05:10:29;;;;;;;13.95;3.78;;;;;;;8.51;65.87;101615.81;5058726;28;20061;-63
2023/03/20 05:13:04;;;;;;;10.77;3.47;;;;;;;8.68;65.07;101626.50;5060564;28;20048;-62
2023/03/20 05:15:52;;;;;;;8.52;3.17;;;;;;;8.59;65.34;101628.19;5072202;28;20091;-62
2023/03/20 05:18:45;;;;;;;11.40;3.40;;;;;;;8.52;65.71;101627.63;5076139;28;20053;-61
2023/03/20 05:21:31;;;;;;;11.40;3.42;;;;;;;8.20;66.55;101616.94;5075426;28;20053;-62
2023/03/20 05:24:26;;;;;;;13.38;3.83;;;;;;;8.42;66.37;101625.72;5063906;28;20500;-63
2023/03/20 05:27:16;;;;;;;17.17;3.38;;;;;;;8.45;65.89;101621.63;5069734;28;20044;-63
2023/03/20 05:30:01;;;;;;;18.58;4.53;;;;;;;8.59;66.14;101623.50;5058092;28;20068;-63
2023/03/20 05:32:49;;;;;;;17.35;3.55;;;;;;;8.67;65.38;101622.94;5076195;28;20491;-61
2023/03/20 05:35:26;;;;;;;13.40;3.20;;;;;;;8.59;65.37;101623.50;5059913;28;20064;-62
2023/03/20 05:38:22;;;;;;;14.48;3.33;;;;;;;8.61;65.42;101618.53;5063523;28;20396;-62
2023/03/20 05:41:10;;;;;;;;;;;;;;;8.62;65.27;101611.13;5057441;28;20076;-62
2023/03/20 05:43:45;;;;;;;15.32;3.33;;;;;;;8.77;65.00;101620.16;5078671;28;20344;-62
2023/03/20 05:46:32;;;;;;;12.85;2.95;;;;;;;8.69;64.14;101617.16;5074102;28;20048;-62
2023/03/20 05:49:08;;;;;;;12.10;3.67;;;;;;;8.75;64.26;101627.84;5078231;28;20061;-62
2023/03/20 05:51:55;;;;;;;12.23;2.80;;;;;;;8.63;64.18;101629.28;5074832;28;20044;-63
2023/03/20 05:54:30;;;;;;;9.55;2.58;;;;;;;8.65;64.15;101627.88;5075567;28;20075;-64
2023/03/20 05:57:21;;;;;;;10.50;2.80;;;;;;;8.62;64.12;101630.34;5037856;28;20068;-62
2023/03/20 05:59:51;;;;;;;12.45;3.35;;;;;;;8.87;63.34;101625.59;5075800;28;20044;-62
2023/03/20 06:02:37;;;;;;;7.75;2.72;;;;;;;8.87;62.63;101631.09;5070818;28;20048;-62
2023/03/20 06:05:24;;;;;;;14.93;3.50;;;;;;;8.92;62.90;101619.28;5067779;28;20049;-62
2023/03/20 06:07:52;;;;;;;12.23;3.13;;;;;;;8.87;62.61;101635.78;5055141;28;20411;-62
2023/03/20 06:10:20;;;;;;;12.63;4.10;;;;;;;8.95;62.51;101635.22;5074428;28;20060;-62
2023/03/20 06:12:52;;;;;;;11.90;3.90;;;;;;;9.02;62.54;101635.72;5072314;28;20045;-63
2023/03/20 06:15:27;;;;;;;13.02;3.10;;;;;;;8.87;62.54;101642.09;5075584;28;20053;-64
2023/03/20 06:18:03;;;;;;;12.05;3.25;;;;;;;8.95;62.67;101640.69;5039932;28;20408;-65
2023/03/20 06:20:30;;;;;;;14.63;4.03;;;;;;;9.03;62.30;101640.94;5059652;28;20056;-62
2023/03/20 06:23:01;;;;;;;17.63;3.72;;;;;;;9.25;61.62;101642.50;5069888;28;20052;-64
2023/03/20 06:25:29;;;;;;;11.65;2.88;;;;;;;8.99;62.00;101647.28;5061349;28;20057;-62
2023/03/20 06:27:57;;;;;;;9.85;2.80;;;;;;;8.95;62.06;101649.78;5056361;28;20050;-64
2023/03/20 06:30:24;;;;;;;10.55;2.92;;;;;;;9.05;61.95;101635.16;5062552;28;20115;-62
2023/03/20 06:32:53;;;;;;;12.05;2.97;;;;;;;9.21;61.19;101639.50;5075299;28;20040;-62
2023/03/20 06:35:23;;;;;;;;;;;;;;;9.09;61.36;101630.75;5074815;28;20063;-63
2023/03/20 06:37:50;;;;;;;12.43;2.92;;;;;;;8.93;61.56;101638.25;5055047;28;19928;-63
2023/03/20 06:40:22;;;;;;;7.43;2.72;;;;;;;9.10;61.41;101637.88;5057140;28;20053;-62
2023/03/20 06:42:50;;;;;;;12.05;3.20;;;;;;;9.15;61.38;101639.81;5075326;28;20064;-63
2023/03/20 06:45:18;;;;;;;11.15;4.40;;;;;;;9.29;60.73;101621.59;5075702;28;20063;-63
2023/03/20 06:48:00;;;;;;;23.27;7.95;;;;;;;9.41;60.57;101622.91;5075738;28;20060;-64
2023/03/20 06:50:29;;;;;;;9.38;3.33;;;;;;;9.24;60.92;101619.69;5076191;28;20044;-64
2023/03/20 06:52:58;;;;;;;12.57;2.80;;;;;;;9.20;60.92;101628.78;5077314;28;20041;-64
2023/03/20 06:55:31;;;;;;;13.20;3.20;;;;;;;9.13;61.19;101624.41;5074300;28;20053;-64
2023/03/20 06:57:59;;;;;;;11.07;3.97;;;;;;;9.17;60.99;101624.66;5056259;28;20060;-65
2023/03/20 07:00:28;;;;;;;18.98;4.20;;;;;;;9.30;61.17;101625.97;5071968;28;20053;-64
2023/03/20 07:02:57;;;;;;;10.07;2.70;;;;;;;9.31;60.51;101625.69;5057198;28;20040;-62
2023/03/20 07:05:27;;;;;;;13.10;3.40;;;;;;;9.56;60.24;101633.81;5073639;28;20048;-62
2023/03/20 07:07:55;;;;;;;9.05;3.25;;;;;;;9.45;60.25;101636.91;5069347;28;20053;-62
2023/03/20 07:10:23;;;;;;;12.20;2.90;;;;;;;9.55;60.66;101625.84;5054056;28;20063;-63
2023/03/20 07:12:52;;;;;;;8.82;2.38;;;;;;;9.63;60.18;101634.31;5062969;28;20044;-66
2023/03/20 07:15:20;;;;;;;16.70;3.30;;;;;;;10.04;59.66;101632.09;5069962;28;20508;-62
2023/03/20 07:17:48;;;;;;;11.57;3.10;;;;;;;10.22;59.34;101639.69;5064894;28;20053;-65
2023/03/20 07:20:16;;;;;;;8.10;3.08;;;;;;;10.14;58.82;101643.88;5072679;28;20404;-62
2023/03/20 07:22:43;;;;;;;11.35;3.00;;;;;;;10.21;58.82;101646.31;5068555;28;20049;-62
2023/03/20 07:25:17;;;;;;;11.95;2.70;;;;;;;10.21;58.75;101638.03;5070930;28;20069;-62
2023/03/20 07:27:53;;;;;;;10.98;3.10;;;;;;;10.16;58.17;101638.09;5073216;28;20113;-62
2023/03/20 07:30:23;;;;;;;10.48;3.22;;;;;;;10.23;58.12;101641.34;5057396;28;20610;-62
2023/03/20 07:32:51;;;;;;;12.75;2.90;;;;;;;10.33;58.08;101646.75;5040783;28;20052;-64
2023/03/20 07:35:19;;;;;;;15.80;3.45;;;;;;;10.12;58.26;101634.25;5034457;28;20044;-63
2023/03/20 07:37:47;;;;;;;10.38;3.13;;;;;;;10.28;57.86;101635.78;5066574;28;20045;-63
2023/03/20 07:40:15;;;;;;;11.70;3.20;;;;;;;10.22;58.12;101631.41;5073590;28;20037;-63
2023/03/20 07:42:51;;;;;;;8.50;2.88;;;;;;;10.08;58.01;101641.41;5048923;28;20056;-65
2023/03/20 07:45:37;;;;;;;14.73;2.50;;;;;;;10.02;57.90;101637.88;5064845;28;20048;-62
2023/03/20 07:48:05;;;;;;;12.77;2.88;;;;;;;10.22;57.94;101636.13;5060089;28;20048;-61
2023/03/20 07:50:33;;;;;;;18.98;3.47;;;;;;;10.23;57.93;101647.63;5054540;28;20499;-62
2023/03/20 07:53:01;;;;;;;14.45;3.10;;;;;;;10.30;57.86;101646.50;5074460;28;20131;-63
2023/03/20 07:55:28;;;;;;;9.95;2.72;;;;;;;10.42;57.60;101641.44;5062677;28;20056;-63
2023/03/20 07:57:55;;;;;;;10.75;2.70;;;;;;;10.39;57.58;101642.81;5074778;28;20048;-62
2023/03/20 08:00:22;;;;;;;10.77;2.72;;;;;;;10.47;57.85;101633.13;5074431;28;20064;-64
2023/03/20 08:02:55;;;;;;;15.88;3.80;;;;;;;10.39;57.70;101642.81;5068103;28;20048;-62
2023/03/20 08:05:23;;;;;;;11.05;3.28;;;;;;;10.63;57.67;101623.59;5051354;28;20061;-64
2023/03/20 08:07:51;;;;;;;13.00;3.60;;;;;;;10.68;56.90;101629.88;5064176;28;20037;-64
2023/03/20 08:10:19;;;;;;;13.25;3.45;;;;;;;10.72;56.97;101628.16;5039296;28;20049;-63
2023/03/20 08:12:46;;;;;;;12.00;3.92;;;;;;;10.80;57.53;101632.22;5073482;28;20426;-63
2023/03/20 08:15:14;;;;;;;14.38;2.85;;;;;;;10.95;56.51;101635.63;5074983;28;20040;-63
2023/03/20 08:17:43;;;;;;;11.10;3.78;;;;;;;10.97;56.18;101638.06;5078804;28;20044;-62
2023/03/20 08:20:13;;;;;;;10.93;2.95;;;;;;;10.99;56.28;101646.88;5069471;28;20586;-64
2023/03/20 08:22:41;;;;;;;18.20;3.08;;;;;;;11.08;56.22;101643.19;5079198;28;20435;-64
2023/03/20 08:25:09;;;;;;;15.15;3.33;;;;;;;11.26;55.97;101652.63;5077434;28;20044;-64
2023/03/20 08:27:37;;;;;;;17.67;4.03;;;;;;;11.26;55.75;101658.13;5077711;28;20048;-63
2023/03/20 08:30:05;;;;;;;14.43;2.90;;;;;;;11.19;55.94;101661.22;5080071;28;20052;-63
2023/03/20 08:32:33;;;;;;;12.57;2.70;;;;;;;11.05;56.06;101663.06;5076097;28;20037;-64
2023/03/20 08:35:00;;;;;;;12.82;2.83;;;;;;;11.13;56.19;101667.13;5079114;28;20056;-63
2023/03/20 08:37:27;;;;;;;11.98;3.10;;;;;;;11.32;55.94;101674.31;5076124;28;20048;-63
2023/03/20 08:39:55;;;;;;;10.30;2.70;;;;;;;11.47;55.44;101675.25;5079718;28;20056;-63
2023/03/20 08:42:22;;;;;;;11.60;2.58;;;;;;;11.51;54.86;101670.75;5077773;28;20057;-64
2023/03/20 08:44:50;;;;;;;11.63;2.90;;;;;;;11.64;54.79;101681.94;5079011;28;20040;-62
2023/03/20 08:47:18;;;;;;;11.77;3.08;;;;;;;11.72;54.86;101680.44;5074742;28;20060;-64
2023/03/20 08:49:45;;;;;;;12.35;2.80;;;;;;;11.83;55.15;101681.94;5078180;28;20071;-63
2023/03/20 08:52:13;;;;;;;12.23;2.70;;;;;;;11.90;54.34;101682.38;5078117;28;20064;-63
2023/03/20 08:54:41;;;;;;;12.63;3.42;;;;;;;11.97;54.37;101678.13;5076492;28;20041;-64
2023/03/20 08:57:08;;;;;;;9.75;3.03;;;;;;;11.91;54.87;101684.00;5057338;28;20377;-64
2023/03/20 08:59:36;;;;;;;16.23;3.60;;;;;;;11.78;54.77;101670.97;5055224;28;20155;-63
2023/03/20 09:02:04;;;;;;;12.40;3.10;;;;;;;11.91;54.68;101673.81;5068126;28;20049;-64
2023/03/20 09:04:32;;;;;;;15.27;2.80;;;;;;;11.95;54.51;101668.50;5057272;28;20049;-63
2023/03/20 09:07:01;;;;;;;15.25;3.35;;;;;;;12.18;54.34;101667.59;5072325;28;20048;-63
2023/03/20 09:09:29;;;;;;;14.77;3.17;;;;;;;12.09;54.62;101670.22;5069378;28;20056;-62
2023/03/20 09:11:58;;;;;;;17.98;2.83;;;;;;;12.26;54.56;101664.97;5075425;28;20119;-63
2023/03/20 09:14:26;;;;;;;16.83;3.83;;;;;;;12.44;53.92;101661.34;5061686;28;20056;-63
2023/03/20 09:16:55;;;;;;;12.18;3.03;;;;;;;12.42;54.12;101660.00;5067462;28;20040;-64
2023/03/20 09:19:22;;;;;;;12.00;3.17;;;;;;;12.72;53.93;101644.81;5057528;28;20061;-64
2023/03/20 09:21:50;;;;;;;13.10;3.10;;;;;;;12.48;54.77;101642.22;5051976;28;20060;-63
2023/03/20 09:24:17;;;;;;;12.85;3.38;;;;;;;12.63;54.77;101633.63;5068515;28;20400;-63
2023/03/20 09:26:44;;;;;;;15.00;3.75;;;;;;;12.66;54.71;101633.03;5063954;28;20057;-64
2023/03/20 09:29:12;;;;;;;16.83;5.63;;;;;;;12.74;54.20;101629.56;5059656;28;20053;-64
2023/03/20 09:31:39;;;;;;;18.45;5.65;;;;;;;12.97;54.20;101634.06;5067379;28;20045;-63
2023/03/20 09:34:07;;;;;;;13.38;3.75;;;;;;;13.23;54.11;101626.13;5078109;28;20057;-64
2023/03/20 09:36:35;;;;;;;14.10;2.72;;;;;;;13.29;53.73;101624.88;5072883;28;20052;-64
2023/03/20 09:39:03;;;;;;;19.83;3.17;;;;;;;13.36;53.66;101625.25;5074119;28;20059;-64
2023/03/20 09:41:36;;;;;;;18.55;4.05;;;;;;;13.32;53.45;101618.69;5076685;28;20052;-64
2023/03/20 09:45:12;;;;;;;17.58;3.83;;;;;;;13.31;53.41;101631.75;5070508;28;20040;-64
2023/03/20 09:47:53;;;;;;;12.32;2.97;;;;;;;13.41;52.39;101637.03;5039426;28;20049;-64
2023/03/20 09:50:37;;;;;;;15.60;2.88;;;;;;;13.21;52.48;101640.25;5074572;28;20051;-65
2023/03/20 09:53:23;;;;;;;11.73;2.90;;;;;;;13.29;51.76;101647.81;5066626;28;20059;-64
2023/03/20 09:55:52;;;;;;;12.05;3.00;;;;;;;13.36;52.02;101651.00;5075744;28;20108;-64
2023/03/20 09:58:24;;;;;;;14.25;3.20;;;;;;;13.28;52.10;101645.38;5072099;28;20048;-63
2023/03/20 10:00:55;;;;;;;14.30;3.20;;;;;;;13.26;52.53;101645.69;5050277;28;20057;-64
2023/03/20 10:03:28;;;;;;;10.20;2.50;;;;;;;13.31;52.30;101651.09;5070534;28;20049;-65
2023/03/20 10:06:02;;;;;;;12.43;3.05;;;;;;;13.34;51.85;101649.66;5073323;28;20057;-64
2023/03/20 10:08:35;;;;;;;18.60;3.42;;;;;;;13.23;52.12;101649.03;5076285;28;20052;-64
2023/03/20 10:11:09;;;;;;;15.50;3.08;;;;;;;13.42;51.91;101644.22;5073328;28;20064;-64
2023/03/20 10:13:36;;;;;;;17.40;3.47;;;;;;;13.17;52.07;101644.75;5076549;28;20048;-63
2023/03/20 10:16:11;;;;;;;16.15;3.63;;;;;;;13.13;53.48;101645.66;5061461;28;20060;-64
2023/03/20 10:18:45;;;;;;;19.58;4.30;;;;;;;13.49;52.81;101641.03;5058997;28;20045;-64
2023/03/20 10:21:23;;;;;;;18.00;3.38;;;;;;;13.30;51.70;101632.06;5061660;28;20045;-65
2023/03/20 10:24:03;;;;;;;20.00;3.88;;;;;;;13.18;52.31;101631.75;5056806;28;20049;-66
2023/03/20 10:26:34;;;;;;;13.05;3.05;;;;;;;12.81;52.55;101626.38;5049056;28;20064;-66
2023/03/20 10:29:24;;;;;;;21.33;3.20;;;;;;;13.03;52.82;101629.28;5075779;28;20051;-65
2023/03/20 10:32:01;;;;;;;18.10;3.28;;;;;;;13.17;52.40;101622.63;5071666;28;20082;-65
2023/03/20 10:34:50;;;;;;;16.33;3.35;;;;;;;13.45;51.64;101618.69;5075732;28;20060;-66
2023/03/20 10:37:30;;;;;;;11.87;3.27;;;;;;;13.76;51.31;101620.75;5070642;28;20384;-65
2023/03/20 10:40:04;;;;;;;15.52;3.05;;;;;;;13.75;51.30;101613.59;5075137;28;20060;-64
2023/03/20 10:42:38;;;;;;;9.60;2.40;;;;;;;13.80;52.42;101616.22;5065430;28;20059;-65
2023/03/20 10:45:13;;;;;;;12.02;3.25;;;;;;;13.74;51.71;101621.06;5052359;28;20048;-65
2023/03/20 10:47:47;;;;;;;17.45;3.35;;;;;;;14.06;50.89;101620.03;5073416;28;20048;-65
2023/03/20 10:50:17;;;;;;;12.48;3.67;;;;;;;14.02;52.17;101622.59;5075026;28;20052;-64
2023/03/20 10:52:47;;;;;;;13.48;2.80;;;;;;;14.15;50.64;101610.66;5057696;28;20052;-65
2023/03/20 10:55:21;;;;;;;16.88;3.35;;;;;;;13.96;50.81;101614.75;5046194;28;20056;-65
2023/03/20 10:57:55;;;;;;;14.18;3.53;;;;;;;14.54;51.49;101613.53;5075508;28;20156;-64
2023/03/20 11:00:25;;;;;;;12.35;3.00;;;;;;;14.69;49.15;101609.53;5073874;28;20056;-64
2023/03/20 11:02:52;;;;;;;58.55;5.25;;;;;;;14.71;49.41;101595.34;5075794;28;20054;-64
2023/03/20 11:05:19;;;;;;;13.43;3.30;;;;;;;14.99;49.19;101597.59;5074753;28;20048;-66
2023/03/20 11:07:51;;;;;;;9.65;2.92;;;;;;;14.82;49.07;101597.50;5075479;28;20052;-67
2023/03/20 11:10:19;;;;;;;12.00;2.60;;;;;;;14.70;49.69;101585.41;5075169;28;20059;-64
2023/03/20 11:12:48;;;;;;;13.35;3.67;;;;;;;14.78;50.22;101579.06;5073251;28;20052;-63
2023/03/20 11:15:20;;;;;;;11.95;2.72;;;;;;;14.97;49.08;101577.66;5075426;28;20044;-65
2023/03/20 11:18:02;;;;;;;11.23;3.55;;;;;;;15.18;48.69;101578.69;5073198;28;20059;-65
2023/03/20 11:20:38;;;;;;;20.98;4.97;;;;;;;15.02;49.41;101576.69;5040636;28;20044;-65
2023/03/20 11:23:09;;;;;;;19.77;3.85;;;;;;;14.86;49.56;101572.72;5068827;28;20040;-64
2023/03/20 11:25:38;;;;;;;15.73;4.10;;;;;;;14.83;49.90;101579.75;5064384;28;20044;-64
2023/03/20 11:28:18;;;;;;;11.93;4.07;;;;;;;14.95;49.61;101571.63;5074172;28;20049;-64
2023/03/20 11:30:47;;;;;;;11.13;3.47;;;;;;;15.16;49.92;101569.06;5073949;28;20052;-65
2023/03/20 11:33:31;;;;;;;14.55;6.57;;;;;;;15.28;48.88;101580.34;5064657;28;20411;-64
2023/03/20 11:36:28;;;;;;;18.77;5.30;;;;;;;15.00;49.52;101573.41;5071266;28;20404;-65
2023/03/20 11:39:26;;;;;;;22.13;7.90;;;;;;;15.46;49.03;101568.16;5073214;28;20056;-66
2023/03/20 11:41:55;;;;;;;19.33;8.80;;;;;;;15.33;49.44;101563.53;5072062;28;20052;-65
2023/03/20 11:44:25;;;;;;;18.20;7.93;;;;;;;15.48;49.71;101572.22;5074815;28;20071;-65
2023/03/20 11:47:04;;;;;;;16.75;5.65;;;;;;;15.28;49.37;101572.00;5073815;28;20411;-64
2023/03/20 11:49:33;;;;;;;15.35;6.63;;;;;;;15.30;49.83;101572.50;5063647;28;20831;-63
2023/03/20 11:52:10;;;;;;;12.20;4.00;;;;;;;15.06;49.35;101570.19;5066960;28;20049;-67
2023/03/20 11:54:45;;;;;;;14.10;4.75;;;;;;;15.14;49.31;101566.59;5053265;28;20049;-65